^^
Meteo Knjazevac Station Historical Data
Daily Summary for July 24, 2021 Units:  English    Metric   Both
Daily Weekly Monthly Yearly Custom
  High: Low: Average:
Temperature: 54.1 °F 30.6 °F 44.9 °F
Dew Point: 41.4 °F 26 °F 35.8 °F
Humidity: 83% 60% 71%
Wind Speed: 14mph 0mph 6.1mph
Wind Gust: 25mph - -
Wind- - SSW
Pressure: 30.16 in 29.96 in -
Precipitation: 0.00 in    
Historical Graphs
 
 
Tabular Data for July 24, 2021
Time Temperature Dew Point Pressure Wind Wind Speed Wind Gust Humidity Rainfall Rate (Hourly) solar Conditions
00:00 30.6 °F 26 °F 30.16 in SSE 1 mph 6 mph 83% 0.00 in 0 W/m2
00:10 31.4 °F 26.2 °F 30.16 in SE 3 mph 8 mph 81% 0.00 in 0 W/m2
00:20 31.6 °F 26.4 °F 30.16 in SSW 3 mph 9 mph 81% 0.00 in 0 W/m2
00:30 32.2 °F 26.7 °F 30.15 in ENE 1 mph 7 mph 80% 0.00 in 0 W/m2
00:40 33.1 °F 27 °F 30.15 in SE 2 mph 7 mph 78% 0.00 in 0 W/m2
00:50 33.4 °F 27.3 °F 30.15 in ESE 2 mph 5 mph 78% 0.00 in 0 W/m2
01:00 33.6 °F 27.2 °F 30.14 in NNE 2 mph 4 mph 77% 0.00 in 0 W/m2
01:10 34 °F 27.5 °F 30.14 in ESE 2 mph 6 mph 77% 0.00 in 0 W/m2
01:20 34.3 °F 27.9 °F 30.14 in ENE 3 mph 8 mph 77% 0.00 in 0 W/m2
01:30 34.7 °F 27.6 °F 30.14 in ESE 2 mph 8 mph 75% 0.00 in 0 W/m2
01:40 34.7 °F 27.6 °F 30.14 in ENE 1 mph 5 mph 75% 0.00 in 0 W/m2
01:50 34.8 °F 27.7 °F 30.13 in East 3 mph 6 mph 75% 0.00 in 0 W/m2
02:00 35.1 °F 27.9 °F 30.13 in NE 3 mph 6 mph 75% 0.00 in 0 W/m2
02:10 35.1 °F 27.6 °F 30.12 in NE 2 mph 5 mph 74% 0.00 in 0 W/m2
02:20 34.7 °F 27.6 °F 30.12 in ESE 5 mph 6 mph 75% 0.00 in 0 W/m2
02:30 34.7 °F 27.6 °F 30.12 in South 1 mph 5 mph 75% 0.00 in 0 W/m2
02:40 34.4 °F 27.3 °F 30.11 in WSW 1 mph 4 mph 75% 0.00 in 0 W/m2
02:50 34.1 °F 27.6 °F 30.11 in SE 5 mph 8 mph 77% 0.00 in 0 W/m2
03:00 34.7 °F 28.2 °F 30.11 in SE 1 mph 8 mph 77% 0.00 in 0 W/m2
03:10 34.7 °F 27.6 °F 30.10 in SE 2 mph 8 mph 75% 0.00 in 0 W/m2
03:20 34.8 °F 28.3 °F 30.10 in Calm   8 mph 77% 0.00 in 0 W/m2
03:30 34.5 °F 28.1 °F 30.10 in North 2 mph 5 mph 77% 0.00 in 0 W/m2
03:40 34.3 °F 27.8 °F 30.09 in SE 1 mph 4 mph 77% 0.00 in 0 W/m2
03:50 34.5 °F 28.1 °F 30.09 in SSE 2 mph 6 mph 77% 0.00 in 0 W/m2
04:00 34.5 °F 28.1 °F 30.09 in SSE 1 mph 5 mph 77% 0.00 in 0 W/m2
04:10 34.8 °F 28.3 °F 30.09 in SE 3 mph 7 mph 77% 0.00 in 0 W/m2
04:20 34.9 °F 28.4 °F 30.09 in SE 2 mph 6 mph 77% 0.00 in 0 W/m2
04:30 35.1 °F 28.6 °F 30.08 in SE 6 mph 12 mph 77% 0.00 in 0 W/m2
04:40 35.4 °F 28.9 °F 30.08 in SSE 2 mph 7 mph 77% 0.00 in 0 W/m2
04:50 35.4 °F 28.9 °F 30.09 in East 5 mph 12 mph 77% 0.00 in 0 W/m2
05:00 35.4 °F 28.9 °F 30.08 in East 5 mph 9 mph 77% 0.00 in 0 W/m2
05:10 35.4 °F 28.9 °F 30.08 in ESE 3 mph 13 mph 77% 0.00 in 0 W/m2
05:20 35.4 °F 28.9 °F 30.08 in East 3 mph 10 mph 77% 0.00 in 0 W/m2
05:30 35.6 °F 28.8 °F 30.08 in SE 6 mph 12 mph 76% 0.00 in 0 W/m2
05:40 35.8 °F 29.3 °F 30.08 in NNW 3 mph 8 mph 77% 0.00 in 0 W/m2
05:50 36 °F 29.4 °F 30.08 in West 3 mph 4 mph 77% 0.00 in 0 W/m2
06:00 36.1 °F 29.6 °F 30.07 in SSW 2 mph 7 mph 77% 0.00 in 0 W/m2
06:10 36.3 °F 29.8 °F 30.07 in West 1 mph 5 mph 77% 0.00 in 0 W/m2
06:20 36.4 °F 29.9 °F 30.08 in West 2 mph 6 mph 77% 0.00 in 0 W/m2
06:30 36.5 °F 30 °F 30.08 in West 2 mph 5 mph 77% 0.00 in 0 W/m2
06:40 36.7 °F 30.5 °F 30.08 in WNW 1 mph 4 mph 78% 0.00 in 0 W/m2
06:50 37.1 °F 30.6 °F 30.08 in SE 2 mph 7 mph 77% 0.00 in 0 W/m2
07:00 37.4 °F 30.8 °F 30.08 in NW 2 mph 8 mph 77% 0.00 in 0 W/m2
07:10 37.7 °F 31.1 °F 30.08 in SE 5 mph 8 mph 77% 0.00 in 4 W/m2
07:20 38.5 °F 32.2 °F 30.08 in SSE 3 mph 11 mph 78% 0.00 in 7 W/m2
07:30 38.8 °F 32.2 °F 30.08 in South 2 mph 10 mph 77% 0.00 in 13 W/m2
07:40 39.2 °F 32.9 °F 30.08 in South 6 mph 14 mph 78% 0.00 in 21 W/m2
07:50 39.9 °F 33.2 °F 30.09 in South 5 mph 10 mph 77% 0.00 in 44 W/m2
08:00 40.3 °F 33.6 °F 30.08 in SSW 5 mph 9 mph 77% 0.00 in 47 W/m2
08:10 40.8 °F 34.2 °F 30.08 in SSW 6 mph 10 mph 77% 0.00 in 81 W/m2
08:20 41.2 °F 33.9 °F 30.08 in SSW 5 mph 14 mph 75% 0.00 in 109 W/m2
08:30 41.5 °F 34.2 °F 30.07 in South 3 mph 7 mph 75% 0.00 in 128 W/m2
08:40 42 °F 34.3 °F 30.07 in South 2 mph 7 mph 74% 0.00 in 147 W/m2
08:50 43.1 °F 35.4 °F 30.07 in SW 5 mph 10 mph 74% 0.00 in 165 W/m2
09:00 44.1 °F 36 °F 30.07 in SW 3 mph 10 mph 73% 0.00 in 183 W/m2
09:10 44.7 °F 36.6 °F 30.07 in SW 3 mph 6 mph 73% 0.00 in 200 W/m2
09:20 45.3 °F 36.8 °F 30.07 in WSW 6 mph 12 mph 72% 0.00 in 216 W/m2
09:30 45.5 °F 37 °F 30.07 in SW 7 mph 12 mph 72% 0.00 in 231 W/m2
09:40 46 °F 36.8 °F 30.07 in SW 7 mph 13 mph 70% 0.00 in 246 W/m2
09:50 46.6 °F 37.3 °F 30.06 in SW 8 mph 13 mph 70% 0.00 in 259 W/m2
10:00 46.9 °F 37.2 °F 30.06 in SW 9 mph 15 mph 69% 0.00 in 271 W/m2
10:10 47.3 °F 37.6 °F 30.06 in SW 8 mph 16 mph 69% 0.00 in 283 W/m2
10:20 47.7 °F 38 °F 30.05 in SW 8 mph 14 mph 69% 0.00 in 292 W/m2
10:30 48.2 °F 38.1 °F 30.05 in SW 10 mph 15 mph 68% 0.00 in 301 W/m2
10:40 48.5 °F 38.4 °F 30.05 in SW 7 mph 16 mph 68% 0.00 in 308 W/m2
10:50 49.1 °F 38.6 °F 30.04 in SW 9 mph 15 mph 67% 0.00 in 314 W/m2
11:00 49.4 °F 38.9 °F 30.04 in SW 7 mph 14 mph 67% 0.00 in 319 W/m2
11:10 49.8 °F 38.9 °F 30.03 in SW 9 mph 17 mph 66% 0.00 in 322 W/m2
11:20 50.2 °F 39.3 °F 30.03 in SW 9 mph 16 mph 66% 0.00 in 324 W/m2
11:30 50.2 °F 38.9 °F 30.02 in SW 12 mph 19 mph 65% 0.00 in 324 W/m2
11:40 50.4 °F 39 °F 30.02 in SW 10 mph 20 mph 65% 0.00 in 323 W/m2
11:50 50.9 °F 39.1 °F 30.01 in SSW 10 mph 18 mph 64% 0.00 in 321 W/m2
12:00 51.2 °F 39.4 °F 30.01 in SW 9 mph 25 mph 64% 0.00 in 317 W/m2
12:10 51.4 °F 39.7 °F 30.01 in SW 9 mph 17 mph 64% 0.00 in 312 W/m2
12:20 52 °F 40.2 °F 30.00 in SSW 9 mph 15 mph 64% 0.00 in 306 W/m2
12:30 52.5 °F 40.3 °F 30.00 in SW 10 mph 20 mph 63% 0.00 in 298 W/m2
12:40 52.7 °F 40.5 °F 30.00 in SW 10 mph 17 mph 63% 0.00 in 289 W/m2
12:50 53 °F 40.7 °F 30.00 in SW 9 mph 16 mph 63% 0.00 in 278 W/m2
13:00 53.4 °F 40.7 °F 30.00 in SW 8 mph 16 mph 62% 0.00 in 267 W/m2
13:10 53.4 °F 40.7 °F 29.99 in SW 10 mph 19 mph 62% 0.00 in 254 W/m2
13:20 53.6 °F 40.9 °F 29.99 in SW 8 mph 15 mph 62% 0.00 in 240 W/m2
13:30 53.8 °F 40.6 °F 29.99 in SW 12 mph 16 mph 61% 0.00 in 225 W/m2
13:40 54.1 °F 41.4 °F 29.99 in SW 8 mph 15 mph 62% 0.00 in 210 W/m2
13:50 54.1 °F 40.6 °F 29.99 in SW 8 mph 16 mph 60% 0.00 in 193 W/m2
14:00 54.1 °F 40.6 °F 29.99 in SW 10 mph 17 mph 60% 0.00 in 176 W/m2
14:10 54.1 °F 40.6 °F 29.99 in SW 10 mph 17 mph 60% 0.00 in 158 W/m2
14:20 54.1 °F 40.6 °F 29.99 in SW 8 mph 13 mph 60% 0.00 in 140 W/m2
14:30 54 °F 40.4 °F 29.98 in SW 8 mph 16 mph 60% 0.00 in 121 W/m2
14:40 53.8 °F 40.2 °F 29.98 in SW 7 mph 16 mph 60% 0.00 in 102 W/m2
14:50 53.6 °F 40 °F 29.98 in SW 8 mph 16 mph 60% 0.00 in 83 W/m2
15:00 53.4 °F 40.7 °F 29.98 in SSW 9 mph 15 mph 62% 0.00 in 65 W/m2
15:10 53.2 °F 40.5 °F 29.98 in SW 9 mph 14 mph 62% 0.00 in 47 W/m2
15:20 53.1 °F 40.4 °F 29.98 in SW 6 mph 13 mph 62% 0.00 in 31 W/m2
15:30 52.7 °F 40 °F 29.98 in SW 8 mph 13 mph 62% 0.00 in 15 W/m2
15:40 52.4 °F 39.7 °F 29.98 in SW 7 mph 14 mph 62% 0.00 in 19 W/m2
15:50 52.2 °F 39.9 °F 29.98 in SW 6 mph 12 mph 63% 0.00 in 11 W/m2
16:00 51.8 °F 39.6 °F 29.98 in SW 6 mph 12 mph 63% 0.00 in 0 W/m2
16:10 51.4 °F 39.7 °F 29.98 in SW 5 mph 10 mph 64% 0.00 in 0 W/m2
16:20 51.1 °F 39.3 °F 29.98 in WSW 6 mph 9 mph 64% 0.00 in 0 W/m2
16:30 50.8 °F 39.4 °F 29.99 in WSW 3 mph 14 mph 65% 0.00 in 0 W/m2
16:40 50.5 °F 39.2 °F 29.99 in WSW 3 mph 8 mph 65% 0.00 in 0 W/m2
16:50 50.2 °F 38.9 °F 29.99 in WSW 2 mph 6 mph 65% 0.00 in 0 W/m2
17:00 49.6 °F 39.1 °F 29.99 in WNW 2 mph 5 mph 67% 0.00 in 0 W/m2
17:10 49.1 °F 38.6 °F 29.99 in West 3 mph 7 mph 67% 0.00 in 0 W/m2
17:20 48.9 °F 38.8 °F 29.99 in WSW 6 mph 10 mph 68% 0.00 in 0 W/m2
17:30 48.7 °F 38.6 °F 29.99 in SW 5 mph 8 mph 68% 0.00 in 0 W/m2
17:40 48.7 °F 38.6 °F 29.99 in SW 5 mph 8 mph 68% 0.00 in 0 W/m2
17:50 48.6 °F 38.5 °F 29.99 in SW 5 mph 10 mph 68% 0.00 in 0 W/m2
18:00 48.6 °F 38.8 °F 29.99 in SSW 2 mph 7 mph 69% 0.00 in 0 W/m2
18:10 48.5 °F 38.8 °F 29.99 in SSW 6 mph 10 mph 69% 0.00 in 0 W/m2
18:20 48.4 °F 38.7 °F 29.99 in SSW 1 mph 8 mph 69% 0.00 in 0 W/m2
18:30 48.4 °F 39 °F 29.99 in SW 5 mph 7 mph 70% 0.00 in 0 W/m2
18:40 48.6 °F 39.2 °F 29.99 in SW 2 mph 9 mph 70% 0.00 in 0 W/m2
18:50 48.4 °F 39 °F 29.99 in SW 3 mph 7 mph 70% 0.00 in 0 W/m2
19:00 48.6 °F 39.2 °F 29.99 in SW 6 mph 10 mph 70% 0.00 in 0 W/m2
19:10 48.7 °F 39.4 °F 29.99 in SW 6 mph 14 mph 70% 0.00 in 0 W/m2
19:20 49.1 °F 39.7 °F 29.99 in SW 8 mph 16 mph 70% 0.00 in 0 W/m2
19:30 49.3 °F 39.9 °F 29.99 in SW 10 mph 17 mph 70% 0.00 in 0 W/m2
19:40 49.5 °F 40.1 °F 29.99 in SW 10 mph 17 mph 70% 0.00 in 0 W/m2
19:50 49.6 °F 40.3 °F 29.98 in SW 10 mph 17 mph 70% 0.00 in 0 W/m2
20:00 49.6 °F 40.3 °F 29.98 in SW 9 mph 17 mph 70% 0.00 in 0 W/m2
20:10 49.8 °F 40.4 °F 29.98 in SW 13 mph 21 mph 70% 0.00 in 0 W/m2
20:20 50 °F 40.6 °F 29.98 in SW 12 mph 19 mph 70% 0.00 in 0 W/m2
20:30 50 °F 40.6 °F 29.98 in SW 12 mph 17 mph 70% 0.00 in 0 W/m2
20:40 50.2 °F 40.8 °F 29.98 in SW 9 mph 16 mph 70% 0.00 in 0 W/m2
20:50 50.2 °F 40.8 °F 29.98 in SW 9 mph 21 mph 70% 0.00 in 0 W/m2
21:00 50.2 °F 40.4 °F 29.98 in SW 12 mph 21 mph 69% 0.00 in 0 W/m2
21:10 50.4 °F 40.6 °F 29.98 in SW 8 mph 18 mph 69% 0.00 in 0 W/m2
21:20 50.5 °F 40.7 °F 29.98 in SW 14 mph 21 mph 69% 0.00 in 0 W/m2
21:30 50.5 °F 40.7 °F 29.98 in SW 8 mph 15 mph 69% 0.00 in 0 W/m2
21:40 50.4 °F 40.9 °F 29.98 in SW 9 mph 15 mph 70% 0.00 in 0 W/m2
21:50 50.4 °F 40.6 °F 29.98 in SW 13 mph 16 mph 69% 0.00 in 0 W/m2
22:00 50.5 °F 40.7 °F 29.98 in SW 14 mph 20 mph 69% 0.00 in 0 W/m2
22:10 50.5 °F 40.7 °F 29.98 in SW 10 mph 17 mph 69% 0.00 in 0 W/m2
22:20 50.4 °F 40.6 °F 29.98 in SW 12 mph 18 mph 69% 0.00 in 0 W/m2
22:30 50.4 °F 40.9 °F 29.98 in SW 10 mph 22 mph 70% 0.00 in 0 W/m2
22:40 50.4 °F 40.9 °F 29.98 in SW 13 mph 18 mph 70% 0.00 in 0 W/m2
22:50 50.4 °F 40.9 °F 29.97 in SW 10 mph 20 mph 70% 0.00 in 0 W/m2
23:00 50.4 °F 40.9 °F 29.97 in SW 12 mph 20 mph 70% 0.00 in 0 W/m2
23:10 50.4 °F 40.9 °F 29.97 in SW 10 mph 17 mph 70% 0.00 in 0 W/m2
23:20 50.4 °F 40.9 °F 29.97 in SW 10 mph 18 mph 70% 0.00 in 0 W/m2
23:30 50.4 °F 40.9 °F 29.97 in SW 10 mph 17 mph 70% 0.00 in 0 W/m2
23:40 50.2 °F 40.8 °F 29.96 in SW 10 mph 16 mph 70% 0.00 in 0 W/m2
23:50 50.3 °F 40.9 °F 29.96 in SW 9 mph 17 mph 70% 0.00 in 0 W/m2
Knjazevac, Serbia
Compliments of Weather Underground - 2 mb